Terminal Aerodrome Forecast
Issued by NWS

Home | Current Version | Previous Version | Text Only | Print | Product List | Glossary On
Versions: 1 2 3 4 5 6 7 8 9 10 11 12 13 14 15 16 17 18 19 20 21 22 23 24 25 26 27 28 29
000
FTUS44 KHGX 282004 AAA
TAFSGR
TAF AMD
KSGR 282004Z 2820/2918 19012KT P6SM BKN035
     FM290100 18006KT P6SM SCT025
     FM290700 19007KT P6SM SCT015 BKN025
     FM291500 18013G23KT P6SM BKN035=

USA.gov is the U.S. government's official web portal to all federal, state and local government web resources and services.